Piqua, Ohio
Current Conditions -  °F | °C
As of 8:56 AM on Thursday 29 Jan 2015 (Local Time) from KDAY Reporting Station
Light Rain Light Rain  
Wind Chill: 25°   Ceiling: 7500
Heat Index: 36°   Visibility: 8mi
Dew Point: 30°   Wind: 20mph
Humidity: 79%   Direction: 190°S
Pressure: 29.83"   Gusts: 26mph
Location:  40.15°N, 84.24°W
Report Text: KDAY 291356Z 19017G23KT 8SM -RA OVC075 02/M01 A2983 RMK AO2 RAB13 SLP109 BINOVC NW P0002 T00221011
Loading
Personal Weather Stations






























Interactive Weather Map New forecast layout! Learn more

10-Day Weather Forecast

Advertisements
Track Severe Weather on mobile